createdAt,value
2023-08-21T00:01:52.171Z,74.17
2023-08-21T00:04:21.743Z,74.00
2023-08-21T00:06:51.036Z,73.70
2023-08-21T00:09:21.230Z,74.08
2023-08-21T00:11:51.849Z,74.94
2023-08-21T00:14:32.990Z,74.95
2023-08-21T00:17:05.886Z,75.24
2023-08-21T00:19:44.244Z,75.43
2023-08-21T00:22:21.114Z,76.08
2023-08-21T00:24:55.932Z,75.28
2023-08-21T00:27:24.598Z,75.98
2023-08-21T00:29:55.349Z,75.63
2023-08-21T00:32:26.577Z,75.38
2023-08-21T00:34:57.563Z,75.61
2023-08-21T00:37:27.317Z,75.31
2023-08-21T00:39:58.303Z,74.78
2023-08-21T00:42:28.435Z,74.53
2023-08-21T00:45:13.083Z,74.54
2023-08-21T00:47:42.358Z,75.31
2023-08-21T00:50:27.806Z,75.30
2023-08-21T00:52:57.290Z,74.21
2023-08-21T00:55:27.138Z,74.78
2023-08-21T00:58:04.463Z,74.67
2023-08-21T01:00:40.850Z,74.18
2023-08-21T01:03:19.260Z,74.22
2023-08-21T01:05:57.118Z,75.46
2023-08-21T01:08:35.317Z,75.10
2023-08-21T01:11:11.565Z,74.76
2023-08-21T01:13:55.581Z,73.96
2023-08-21T01:16:36.649Z,75.62
2023-08-21T01:19:08.427Z,76.31
2023-08-21T01:21:36.739Z,76.17
2023-08-21T01:24:11.469Z,75.63
2023-08-21T01:26:45.308Z,76.11
2023-08-21T01:29:16.252Z,77.26
2023-08-21T01:31:54.503Z,77.22
2023-08-21T01:34:26.112Z,77.15
2023-08-21T01:37:02.512Z,76.99
2023-08-21T01:39:48.441Z,76.78
2023-08-21T01:42:19.929Z,77.95
2023-08-21T01:44:51.749Z,77.52
2023-08-21T01:47:22.313Z,78.30
2023-08-21T01:49:55.427Z,77.81
2023-08-21T01:52:24.003Z,78.17
2023-08-21T01:54:56.361Z,77.71
2023-08-21T01:57:25.796Z,77.56
2023-08-21T02:00:04.504Z,77.67
2023-08-21T02:02:54.960Z,77.77
2023-08-21T02:05:23.106Z,77.89
2023-08-21T02:07:51.940Z,77.71
2023-08-21T02:10:27.528Z,77.58
2023-08-21T02:12:56.131Z,78.11
2023-08-21T02:15:34.253Z,78.51
2023-08-21T02:18:05.216Z,78.88
2023-08-21T02:20:35.014Z,78.79
2023-08-21T02:23:03.749Z,79.01
2023-08-21T02:25:34.883Z,78.47
2023-08-21T02:28:05.398Z,79.01
2023-08-21T02:30:37.846Z,79.18
2023-08-21T02:33:09.891Z,79.36
2023-08-21T02:35:44.249Z,78.65
2023-08-21T02:38:13.074Z,79.39
2023-08-21T02:40:54.780Z,78.89
2023-08-21T02:43:26.414Z,80.03
2023-08-21T02:46:00.551Z,80.13
2023-08-21T02:48:31.253Z,80.49
2023-08-21T02:51:00.692Z,80.62
2023-08-21T02:53:31.116Z,79.34
2023-08-21T02:56:01.199Z,81.28
2023-08-21T02:58:32.165Z,81.00
2023-08-21T03:01:03.914Z,80.45
2023-08-21T03:03:37.946Z,81.13
2023-08-21T03:06:07.968Z,80.79
2023-08-21T03:08:45.173Z,81.75
2023-08-21T03:11:17.691Z,82.30
2023-08-21T03:13:47.046Z,82.04
2023-08-21T03:16:18.103Z,82.43
2023-08-21T03:19:08.130Z,81.54
2023-08-21T03:21:36.871Z,82.25
2023-08-21T03:24:10.569Z,82.33
2023-08-21T03:26:41.476Z,82.31
2023-08-21T03:29:12.972Z,83.03
2023-08-21T03:31:42.204Z,83.26
2023-08-21T03:34:12.176Z,83.42
2023-08-21T03:36:42.666Z,82.95
2023-08-21T03:39:12.565Z,83.82
2023-08-21T03:41:50.701Z,83.12
2023-08-21T03:44:31.453Z,82.73
2023-08-21T03:47:02.516Z,82.72
2023-08-21T03:49:43.544Z,82.14
2023-08-21T03:52:14.535Z,82.36
2023-08-21T03:54:46.807Z,82.60
2023-08-21T03:57:27.317Z,81.49
2023-08-21T03:59:55.362Z,82.38
2023-08-21T04:02:26.829Z,81.93
2023-08-21T04:05:05.065Z,82.13
2023-08-21T04:07:46.050Z,81.31
2023-08-21T04:10:14.935Z,82.52
2023-08-21T04:12:52.089Z,81.14
2023-08-21T04:15:28.392Z,81.19
2023-08-21T04:17:59.844Z,81.26
2023-08-21T04:20:32.803Z,80.97
2023-08-21T04:23:00.896Z,81.31
2023-08-21T04:25:37.771Z,81.03
2023-08-21T04:28:08.713Z,81.18
2023-08-21T04:30:38.268Z,80.78
2023-08-21T04:33:07.576Z,79.26
2023-08-21T04:35:42.533Z,80.22
2023-08-21T04:38:19.024Z,80.09
2023-08-21T04:40:56.490Z,79.11
2023-08-21T04:43:31.168Z,79.98
2023-08-21T04:46:08.663Z,79.17
2023-08-21T04:48:44.407Z,79.44
2023-08-21T04:51:23.371Z,79.83
2023-08-21T04:54:08.109Z,79.88
2023-08-21T04:56:49.058Z,79.68
2023-08-21T04:59:19.810Z,79.64
2023-08-21T05:01:49.160Z,80.12
2023-08-21T05:04:18.628Z,79.12
2023-08-21T05:06:50.021Z,79.70
2023-08-21T05:09:26.520Z,79.21
2023-08-21T05:11:57.400Z,79.22
2023-08-21T05:14:33.092Z,78.75
2023-08-21T05:17:15.523Z,79.77
2023-08-21T05:19:45.964Z,78.65
2023-08-21T05:22:17.400Z,78.94
2023-08-21T05:24:46.004Z,77.94
2023-08-21T05:27:23.125Z,77.31
2023-08-21T05:30:00.928Z,77.00
2023-08-21T05:32:41.489Z,77.85
2023-08-21T05:35:12.463Z,78.27
2023-08-21T05:37:49.165Z,77.38
2023-08-21T05:40:26.857Z,76.36
2023-08-21T05:43:04.591Z,75.66
2023-08-21T05:45:35.395Z,75.80
2023-08-21T05:48:06.033Z,75.47
2023-08-21T05:50:51.352Z,75.13
2023-08-21T05:53:22.797Z,74.94
2023-08-21T05:56:03.068Z,75.29
2023-08-21T05:58:34.992Z,75.69
2023-08-21T06:01:13.252Z,74.66
2023-08-21T06:03:48.932Z,74.48
2023-08-21T06:06:48.878Z,75.03
2023-08-21T06:09:22.760Z,75.32
2023-08-21T06:11:53.462Z,75.06
2023-08-21T06:14:39.736Z,75.20
2023-08-21T06:17:24.173Z,75.35
2023-08-21T06:19:57.496Z,74.97
2023-08-21T06:22:34.103Z,74.27
2023-08-21T06:25:05.260Z,74.15
2023-08-21T06:27:44.418Z,73.91
2023-08-21T06:30:29.704Z,73.30
2023-08-21T06:33:00.693Z,73.42
2023-08-21T06:35:32.849Z,73.14
2023-08-21T06:38:02.257Z,72.46
2023-08-21T06:40:33.203Z,72.76
2023-08-21T06:43:11.501Z,72.59
2023-08-21T06:45:45.201Z,72.84
2023-08-21T06:48:29.439Z,71.78
2023-08-21T06:51:00.482Z,73.09
2023-08-21T06:53:29.841Z,72.95
2023-08-21T06:56:00.321Z,73.77
2023-08-21T06:58:32.440Z,74.18
2023-08-21T07:01:09.887Z,74.84
2023-08-21T07:03:42.090Z,74.48
2023-08-21T07:06:11.264Z,73.78
2023-08-21T07:08:41.794Z,72.73
2023-08-21T07:11:14.599Z,72.74
2023-08-21T07:13:56.828Z,72.55
2023-08-21T07:16:27.473Z,72.41
2023-08-21T07:19:00.307Z,71.89
2023-08-21T07:21:34.763Z,71.41
2023-08-21T07:24:05.171Z,70.55
2023-08-21T07:26:34.735Z,69.50
2023-08-21T07:29:05.600Z,68.72
2023-08-21T07:31:37.349Z,67.95
2023-08-21T07:34:17.734Z,67.64
2023-08-21T07:36:49.459Z,67.11
2023-08-21T07:39:17.514Z,66.46
2023-08-21T07:41:49.017Z,65.90
2023-08-21T07:44:20.650Z,65.11
2023-08-21T07:46:52.692Z,65.00
2023-08-21T07:49:27.831Z,64.57
2023-08-21T07:51:58.411Z,64.29
2023-08-21T07:54:29.890Z,63.82
2023-08-21T07:56:57.953Z,63.50
2023-08-21T07:59:30.659Z,62.92
2023-08-21T08:01:59.526Z,63.27
2023-08-21T08:04:43.614Z,62.78
2023-08-21T08:07:14.900Z,62.73
2023-08-21T08:09:48.297Z,62.31
2023-08-21T08:12:22.386Z,61.73
2023-08-21T08:14:54.008Z,61.75
2023-08-21T08:17:24.479Z,61.25
2023-08-21T08:19:56.127Z,60.26
2023-08-21T08:22:27.365Z,60.42
2023-08-21T08:24:59.417Z,59.68
2023-08-21T08:27:30.241Z,59.93
2023-08-21T08:30:01.041Z,60.73
2023-08-21T08:32:30.552Z,60.46
2023-08-21T08:35:01.169Z,59.88
2023-08-21T08:37:32.067Z,59.35
2023-08-21T08:40:01.321Z,59.29
2023-08-21T08:42:30.261Z,59.98
2023-08-21T08:45:38.385Z,59.25
2023-08-21T08:48:17.643Z,59.55
2023-08-21T08:50:59.330Z,58.43
2023-08-21T08:53:30.030Z,57.35
2023-08-21T08:55:59.884Z,57.45
2023-08-21T08:58:29.247Z,56.52
2023-08-21T09:01:05.585Z,56.28
2023-08-21T09:03:35.107Z,55.78
2023-08-21T09:06:08.781Z,55.26
2023-08-21T09:08:42.706Z,54.64
2023-08-21T09:11:11.347Z,54.49
2023-08-21T09:13:46.437Z,53.66
2023-08-21T09:16:28.285Z,53.94
2023-08-21T09:19:01.160Z,53.41
2023-08-21T09:21:31.200Z,52.31
2023-08-21T09:24:03.884Z,51.90
2023-08-21T09:26:35.689Z,52.43
2023-08-21T09:29:14.012Z,51.72
2023-08-21T09:31:44.719Z,51.76
2023-08-21T09:34:15.628Z,51.98
2023-08-21T09:36:56.741Z,51.51
2023-08-21T09:39:27.833Z,51.05
2023-08-21T09:42:03.893Z,49.21
2023-08-21T09:44:53.033Z,50.55
2023-08-21T09:47:29.477Z,51.20
2023-08-21T09:50:01.836Z,50.87
2023-08-21T09:52:46.622Z,50.41
2023-08-21T09:55:16.050Z,50.40
2023-08-21T09:57:49.928Z,49.48
2023-08-21T10:00:31.937Z,49.07
2023-08-21T10:03:04.330Z,48.20
2023-08-21T10:05:36.438Z,47.98
2023-08-21T10:08:12.544Z,47.69
2023-08-21T10:10:44.025Z,46.96
2023-08-21T10:13:15.269Z,46.44
2023-08-21T10:15:53.038Z,45.94
2023-08-21T10:18:25.690Z,46.01
2023-08-21T10:21:06.433Z,46.01
2023-08-21T10:23:45.867Z,46.14
2023-08-21T10:26:14.706Z,45.62
2023-08-21T10:28:48.663Z,44.80
2023-08-21T10:31:44.644Z,44.25
2023-08-21T10:34:17.581Z,43.97
2023-08-21T10:37:25.266Z,42.91
2023-08-21T10:40:02.066Z,43.16
2023-08-21T10:42:43.474Z,43.30
2023-08-21T10:45:13.804Z,43.60
2023-08-21T10:47:48.346Z,43.73
2023-08-21T10:50:23.824Z,43.76
2023-08-21T10:52:55.009Z,43.52
2023-08-21T10:55:34.808Z,41.63
2023-08-21T10:58:04.719Z,41.76
2023-08-21T11:00:36.499Z,40.17
2023-08-21T11:03:11.908Z,40.17
2023-08-21T11:05:42.656Z,40.36
2023-08-21T11:08:14.104Z,40.57
2023-08-21T11:10:51.749Z,40.00
2023-08-21T11:13:21.139Z,38.97
2023-08-21T11:15:49.865Z,38.43
2023-08-21T11:18:21.112Z,37.15
2023-08-21T11:20:53.205Z,36.08
2023-08-21T11:23:23.720Z,36.31
2023-08-21T11:26:19.273Z,36.02
2023-08-21T11:28:55.504Z,35.78
2023-08-21T11:31:32.557Z,35.13
2023-08-21T11:34:22.153Z,34.13
2023-08-21T11:36:52.866Z,34.48
2023-08-21T11:39:23.213Z,34.22
2023-08-21T11:42:05.378Z,33.62
2023-08-21T11:44:34.884Z,33.63
2023-08-21T11:47:05.832Z,33.68
2023-08-21T11:49:43.838Z,32.96
2023-08-21T11:52:23.858Z,32.37
2023-08-21T11:54:58.162Z,32.21
2023-08-21T11:57:31.312Z,32.39
2023-08-21T12:00:03.423Z,32.66
2023-08-21T12:02:37.391Z,32.19
2023-08-21T12:05:15.346Z,31.96
2023-08-21T12:07:44.769Z,31.75
2023-08-21T12:10:16.398Z,31.07
2023-08-21T12:12:49.021Z,31.51
2023-08-21T12:15:25.636Z,31.50
2023-08-21T12:17:54.696Z,31.84
2023-08-21T12:20:25.598Z,31.55
2023-08-21T12:22:55.699Z,31.59
2023-08-21T12:25:25.251Z,31.44
2023-08-21T12:28:09.697Z,31.99
2023-08-21T12:30:43.017Z,31.28
2023-08-21T12:33:23.956Z,31.32
2023-08-21T12:35:56.937Z,31.31
2023-08-21T12:38:30.417Z,31.29
2023-08-21T12:41:01.651Z,31.06
2023-08-21T12:43:34.473Z,30.65
2023-08-21T12:46:05.735Z,30.27
2023-08-21T12:48:36.954Z,30.30
2023-08-21T12:51:06.362Z,30.32
2023-08-21T12:53:35.004Z,30.37
2023-08-21T12:56:06.056Z,30.37
2023-08-21T12:58:37.288Z,30.29
2023-08-21T13:01:08.049Z,30.13
2023-08-21T13:03:49.422Z,29.95
2023-08-21T13:06:19.619Z,29.60
2023-08-21T13:08:51.510Z,29.42
2023-08-21T13:11:22.541Z,29.37
2023-08-21T13:14:01.551Z,29.44
2023-08-21T13:16:33.719Z,29.44
2023-08-21T13:19:02.976Z,29.11
2023-08-21T13:21:34.715Z,28.77
2023-08-21T13:24:04.038Z,28.17
2023-08-21T13:26:33.742Z,27.94
2023-08-21T13:29:04.449Z,27.60
2023-08-21T13:31:36.514Z,27.08
2023-08-21T13:34:06.982Z,27.32
2023-08-21T13:36:45.574Z,27.16
2023-08-21T13:39:16.647Z,26.39
2023-08-21T13:41:50.552Z,26.73
2023-08-21T13:44:34.134Z,26.37
2023-08-21T13:47:05.559Z,26.39
2023-08-21T13:49:37.136Z,26.21
2023-08-21T13:52:08.612Z,26.27
2023-08-21T13:54:36.827Z,26.44
2023-08-21T13:57:11.882Z,26.58
2023-08-21T13:59:49.025Z,26.82
2023-08-21T14:02:26.464Z,26.79
2023-08-21T14:04:56.990Z,26.01
2023-08-21T14:07:28.248Z,26.13
2023-08-21T14:10:03.465Z,26.17
2023-08-21T14:12:34.352Z,26.12
2023-08-21T14:15:23.409Z,26.44
2023-08-21T14:18:05.712Z,26.38
2023-08-21T14:20:35.608Z,25.70
2023-08-21T14:23:07.199Z,25.59
2023-08-21T14:25:38.376Z,26.15
2023-08-21T14:28:07.378Z,26.15
2023-08-21T14:30:44.411Z,26.59
2023-08-21T14:33:18.346Z,26.77
2023-08-21T14:35:50.223Z,26.47
2023-08-21T14:38:21.404Z,26.08
2023-08-21T14:40:51.745Z,25.76
2023-08-21T14:43:22.119Z,25.71
2023-08-21T14:45:53.478Z,25.57
2023-08-21T14:48:24.785Z,25.09
2023-08-21T14:50:57.111Z,24.67
2023-08-21T14:53:37.396Z,25.26
2023-08-21T14:56:06.925Z,25.26
2023-08-21T14:58:35.904Z,25.25
2023-08-21T15:01:10.328Z,25.17
2023-08-21T15:03:39.597Z,25.24
2023-08-21T15:06:17.534Z,25.45
2023-08-21T15:08:48.095Z,25.25
2023-08-21T15:11:20.968Z,25.04
2023-08-21T15:13:52.054Z,24.81
2023-08-21T15:16:24.330Z,24.45
2023-08-21T15:18:54.469Z,24.23
2023-08-21T15:21:25.666Z,24.67
2023-08-21T15:23:56.881Z,24.83
2023-08-21T15:26:27.119Z,25.06
2023-08-21T15:29:07.353Z,25.15
2023-08-21T15:31:54.122Z,25.09
2023-08-21T15:34:25.561Z,25.16
2023-08-21T15:37:00.728Z,24.70
2023-08-21T15:39:38.507Z,23.91
2023-08-21T15:42:10.612Z,24.07
2023-08-21T15:44:47.196Z,23.40
2023-08-21T15:50:04.720Z,23.08
2023-08-21T15:52:37.017Z,22.97
2023-08-21T15:55:06.423Z,23.19
2023-08-21T15:57:37.521Z,23.66
2023-08-21T16:00:09.565Z,23.18
2023-08-21T16:02:53.979Z,22.90
2023-08-21T16:05:24.625Z,22.95
2023-08-21T16:07:57.703Z,23.27
2023-08-21T16:10:30.372Z,23.23
2023-08-21T16:12:58.594Z,22.95
2023-08-21T16:15:34.608Z,23.14
2023-08-21T16:18:06.335Z,23.19
2023-08-21T16:20:35.271Z,23.45
2023-08-21T16:23:16.725Z,23.19
2023-08-21T16:25:45.021Z,24.37
2023-08-21T16:28:14.563Z,24.65
2023-08-21T16:30:43.320Z,25.23
2023-08-21T16:33:31.677Z,25.75
2023-08-21T16:36:01.135Z,26.38
2023-08-21T16:38:29.265Z,26.77
2023-08-21T16:40:58.211Z,27.28
2023-08-21T16:43:36.561Z,27.77
2023-08-21T16:46:09.337Z,27.88
2023-08-21T16:48:47.032Z,27.98
2023-08-21T16:51:16.154Z,28.59
2023-08-21T16:53:50.248Z,28.40
2023-08-21T16:56:23.930Z,28.91
2023-08-21T16:58:53.710Z,30.03
2023-08-21T17:01:23.928Z,29.79
2023-08-21T17:03:57.274Z,30.77
2023-08-21T17:06:40.242Z,31.15
2023-08-21T17:09:13.015Z,31.14
2023-08-21T17:11:43.172Z,31.49
2023-08-21T17:14:14.708Z,31.82
2023-08-21T17:16:45.034Z,31.96
2023-08-21T17:19:21.418Z,31.72
2023-08-21T17:21:52.571Z,31.68
2023-08-21T17:24:25.513Z,32.30
2023-08-21T17:27:00.579Z,32.14
2023-08-21T17:29:33.418Z,32.17
2023-08-21T17:32:25.294Z,32.46
2023-08-21T17:35:03.133Z,32.92
2023-08-21T17:37:39.591Z,33.09
2023-08-21T17:40:23.605Z,32.46
2023-08-21T17:42:57.491Z,31.92
2023-08-21T17:45:34.120Z,32.07
2023-08-21T17:48:10.121Z,32.28
2023-08-21T17:50:49.419Z,32.57
2023-08-21T17:53:23.318Z,32.52
2023-08-21T17:56:06.605Z,31.79
2023-08-21T17:58:45.108Z,31.83
2023-08-21T18:01:38.891Z,31.42
2023-08-21T18:04:16.143Z,31.34
2023-08-21T18:06:55.948Z,31.31
2023-08-21T18:09:31.517Z,31.82
2023-08-21T18:12:07.070Z,31.78
2023-08-21T18:14:40.629Z,31.81
2023-08-21T18:17:22.897Z,31.89
2023-08-21T18:19:59.484Z,32.19
2023-08-21T18:22:38.782Z,32.47
2023-08-21T18:25:18.790Z,31.87
2023-08-21T18:30:47.664Z,33.06
2023-08-21T18:33:30.471Z,33.05
2023-08-21T18:36:04.461Z,32.94
2023-08-21T18:38:58.860Z,33.11
2023-08-21T18:41:45.950Z,33.59
2023-08-21T18:44:19.530Z,33.71
2023-08-21T18:46:59.128Z,33.87
2023-08-21T18:49:34.680Z,33.88
2023-08-21T18:52:20.401Z,34.20
2023-08-21T18:55:20.223Z,34.51
2023-08-21T18:58:04.040Z,34.61
2023-08-21T19:00:51.664Z,35.13
2023-08-21T19:03:27.942Z,35.25
2023-08-21T19:06:03.739Z,36.01
2023-08-21T19:08:46.646Z,36.33
2023-08-21T19:11:38.262Z,36.00
2023-08-21T19:14:23.793Z,36.26
2023-08-21T19:17:00.758Z,36.55
2023-08-21T19:19:46.865Z,36.44
2023-08-21T19:22:32.200Z,36.87
2023-08-21T19:25:11.351Z,37.55
2023-08-21T19:27:56.528Z,37.57
2023-08-21T19:30:46.528Z,37.35
2023-08-21T19:33:30.430Z,37.66
2023-08-21T19:36:08.177Z,37.93
2023-08-21T19:38:53.890Z,37.75
2023-08-21T19:41:27.989Z,38.13
2023-08-21T19:44:12.615Z,38.43
2023-08-21T19:46:57.628Z,38.35
2023-08-21T19:49:29.612Z,38.71
2023-08-21T19:52:28.726Z,38.76
2023-08-21T19:55:16.525Z,39.39
2023-08-21T19:57:49.808Z,39.20
2023-08-21T20:00:38.603Z,39.65
2023-08-21T20:03:13.056Z,40.20
2023-08-21T20:05:52.078Z,40.05
2023-08-21T20:08:26.085Z,40.25
2023-08-21T20:11:07.105Z,40.44
2023-08-21T20:13:47.873Z,40.82
2023-08-21T20:16:47.721Z,40.84
2023-08-21T20:19:20.718Z,41.21
2023-08-21T20:21:57.279Z,41.45
2023-08-21T20:24:32.688Z,41.49
2023-08-21T20:27:12.331Z,41.68
2023-08-21T20:29:45.096Z,41.77
2023-08-21T20:32:19.233Z,42.47
2023-08-21T20:34:58.000Z,42.60
2023-08-21T20:37:41.235Z,42.79
2023-08-21T20:40:15.405Z,42.84
2023-08-21T20:42:54.614Z,43.13
2023-08-21T20:45:26.720Z,42.74
2023-08-21T20:48:07.446Z,43.36
2023-08-21T20:50:43.239Z,43.53
2023-08-21T20:53:17.850Z,43.84
2023-08-21T20:56:01.337Z,44.26
2023-08-21T20:58:42.737Z,44.07
2023-08-21T21:01:20.940Z,44.59
2023-08-21T21:04:03.592Z,44.74
2023-08-21T21:06:42.296Z,44.93
2023-08-21T21:09:10.529Z,44.75
2023-08-21T21:11:41.995Z,44.92
2023-08-21T21:14:19.192Z,45.12
2023-08-21T21:16:53.461Z,45.66
2023-08-21T21:19:30.784Z,45.53
2023-08-21T21:22:10.515Z,45.80
2023-08-21T21:24:45.868Z,46.12
2023-08-21T21:27:24.078Z,45.89
2023-08-21T21:29:53.955Z,46.39
2023-08-21T21:32:24.221Z,46.07
2023-08-21T21:34:56.675Z,46.11
2023-08-21T21:37:39.643Z,45.99
2023-08-21T21:40:18.710Z,46.36
2023-08-21T21:42:49.539Z,46.76
2023-08-21T21:45:31.396Z,46.66
2023-08-21T21:48:01.996Z,48.21
2023-08-21T21:50:33.954Z,48.47
2023-08-21T21:53:02.221Z,49.33
2023-08-21T21:55:31.867Z,49.86
2023-08-21T21:58:00.782Z,50.79
2023-08-21T22:00:32.635Z,51.15
2023-08-21T22:03:01.952Z,51.43
2023-08-21T22:05:43.075Z,51.97
2023-08-21T22:08:19.577Z,51.86
2023-08-21T22:10:58.046Z,52.18
2023-08-21T22:13:26.271Z,52.30
2023-08-21T22:16:01.296Z,52.64
2023-08-21T22:18:32.566Z,52.55
2023-08-21T22:21:09.718Z,52.16
2023-08-21T22:23:44.330Z,52.16
2023-08-21T22:26:13.915Z,52.33
2023-08-21T22:28:51.498Z,53.21
2023-08-21T22:31:36.134Z,53.06
2023-08-21T22:34:10.291Z,52.97
2023-08-21T22:36:43.386Z,52.95
2023-08-21T22:39:21.718Z,52.75
2023-08-21T22:41:53.381Z,53.17
2023-08-21T22:44:24.009Z,53.35
2023-08-21T22:46:53.608Z,53.00
2023-08-21T22:49:23.838Z,53.03
2023-08-21T22:52:02.994Z,53.41
2023-08-21T22:54:34.053Z,53.75
2023-08-21T22:57:04.906Z,54.27
2023-08-21T22:59:43.767Z,54.23
2023-08-21T23:02:20.499Z,53.85
2023-08-21T23:04:48.744Z,54.91
2023-08-21T23:07:24.383Z,54.50
2023-08-21T23:09:53.001Z,55.66
2023-08-21T23:12:25.762Z,55.90
2023-08-21T23:14:57.281Z,55.67
2023-08-21T23:17:27.080Z,56.11
2023-08-21T23:19:58.005Z,56.10
2023-08-21T23:22:28.958Z,55.86
2023-08-21T23:24:57.869Z,55.94
2023-08-21T23:27:28.175Z,55.84
2023-08-21T23:29:58.033Z,55.24
2023-08-21T23:32:28.439Z,55.50
2023-08-21T23:34:57.128Z,55.51
2023-08-21T23:37:40.514Z,55.44
2023-08-21T23:40:18.784Z,56.09
2023-08-21T23:42:49.773Z,56.24
2023-08-21T23:45:27.394Z,56.46
2023-08-21T23:48:05.381Z,56.53
2023-08-21T23:50:42.949Z,56.83
2023-08-21T23:53:25.195Z,57.06
2023-08-21T23:55:56.631Z,57.90
2023-08-21T23:58:28.245Z,57.27
